Time;durP1;ratioP1;P1;durP2;ratioP2;P2;SDS_P1;SDS_P2;PMS_P1;PMS_P2;Temp;Humidity;BMP_temperature;BMP_pressure;BME280_temperature;BME280_humidity;BME280_pressure;Samples;Min_cycle;Max_cycle;Signal;HPM_P1;HPM_P2
2021/08/09 00:02:19;;;;;;;;;2.00;2.00;;;;;19.72;49.22;101118.44;5080392;28;45291;-58
2021/08/09 00:04:44;;;;;;;;;1.00;1.00;;;;;19.68;49.58;101112.38;5080511;28;45488;-58
2021/08/09 00:07:11;;;;;;;;;2.00;1.75;;;;;19.67;49.21;101115.97;5080706;28;45360;-58
2021/08/09 00:09:36;;;;;;;;;2.00;2.00;;;;;19.64;49.68;101119.66;5080383;28;45307;-58
2021/08/09 00:12:02;;;;;;;;;1.50;1.00;;;;;19.63;49.60;101122.38;5078729;28;46984;-58
2021/08/09 00:14:28;;;;;;;;;2.25;2.25;;;;;19.59;49.17;101121.66;5078704;28;46456;-58
2021/08/09 00:16:54;;;;;;;;;1.00;1.00;;;;;19.56;49.76;101119.16;5078949;28;45366;-58
2021/08/09 00:19:19;;;;;;;;;2.00;0.00;;;;;19.54;49.49;101121.00;5080178;28;45456;-58
2021/08/09 00:21:45;;;;;;;;;1.50;1.50;;;;;19.51;49.57;101112.28;5079965;27;45275;-58
2021/08/09 00:24:10;;;;;;;;;1.75;1.50;;;;;19.46;49.57;101104.53;5078726;28;45299;-58
2021/08/09 00:26:36;;;;;;;;;3.75;1.75;;;;;19.42;49.53;101102.91;5080433;28;45216;-58
2021/08/09 00:29:01;;;;;;;;;1.00;1.00;;;;;19.38;49.72;101096.84;5079859;28;45259;-58
2021/08/09 00:31:27;;;;;;;;;3.00;2.00;;;;;19.37;49.76;101103.16;5079845;28;45929;-58
2021/08/09 00:33:53;;;;;;;;;2.00;2.00;;;;;19.26;49.84;101089.44;5079864;28;45258;-58
2021/08/09 00:36:18;;;;;;;;;8.00;6.75;;;;;19.28;49.79;101095.56;5078871;28;45361;-60
2021/08/09 00:38:44;;;;;;;;;1.00;1.00;;;;;19.29;50.13;101099.94;5078771;28;45595;-59
2021/08/09 00:41:09;;;;;;;;;5.00;4.00;;;;;19.27;50.04;101108.03;5079787;28;46191;-58
2021/08/09 00:43:35;;;;;;;;;1.25;1.25;;;;;19.25;50.01;101098.38;5079782;28;45323;-58
2021/08/09 00:46:04;;;;;;;;;1.00;1.00;;;;;19.21;50.53;101110.94;5079819;28;45302;-59
2021/08/09 00:48:31;;;;;;;;;2.75;1.50;;;;;19.20;50.00;101105.69;5062113;28;45205;-58
2021/08/09 00:50:57;;;;;;;;;1.50;1.50;;;;;19.19;50.13;101109.28;5079533;28;46069;-58
2021/08/09 00:53:22;;;;;;;;;2.00;1.00;;;;;19.15;50.36;101103.22;5078347;28;45366;-58
2021/08/09 00:55:51;;;;;;;;;5.00;1.00;;;;;19.13;50.47;101105.97;5078763;28;45257;-58
2021/08/09 00:58:17;;;;;;;;;2.00;1.00;;;;;19.12;50.12;101111.38;5079540;28;45275;-58
2021/08/09 01:00:42;;;;;;;;;1.25;1.25;;;;;19.10;50.25;101100.75;5079362;28;46315;-59
2021/08/09 01:03:07;;;;;;;;;1.00;1.00;;;;;19.07;50.27;101103.56;5079590;28;45242;-58
2021/08/09 01:05:33;;;;;;;;;2.50;1.50;;;;;19.06;50.46;101098.31;5079910;28;45240;-58
2021/08/09 01:08:20;;;;;;;;;2.00;2.00;;;;;19.04;50.75;101101.03;5079460;28;45229;-58
2021/08/09 01:11:03;;;;;;;;;0.25;0.25;;;;;19.01;50.37;101095.84;5082433;27;45265;-58
2021/08/09 01:13:39;;;;;;;;;1.00;1.00;;;;;19.00;50.48;101083.47;5082833;28;45232;-58
2021/08/09 01:16:10;;;;;;;;;2.00;1.00;;;;;18.96;50.56;101088.06;5082714;28;45293;-58
2021/08/09 01:18:38;;;;;;;;;2.50;2.50;;;;;18.96;50.46;101097.84;5083207;28;45338;-58
2021/08/09 01:21:05;;;;;;;;;1.00;1.00;;;;;18.91;50.49;101089.22;5082489;27;46230;-58
2021/08/09 01:23:51;;;;;;;;;1.00;1.00;;;;;18.92;50.81;101082.97;5082863;28;45263;-59
2021/08/09 01:26:27;;;;;;;;;2.00;1.00;;;;;18.89;50.69;101078.56;5082903;27;45403;-58
2021/08/09 01:28:58;;;;;;;;;1.50;1.00;;;;;18.81;50.96;101076.25;5082629;28;45329;-58
2021/08/09 01:31:28;;;;;;;;;1.00;1.00;;;;;18.81;50.81;101096.69;5081197;27;47175;-58
2021/08/09 01:33:53;;;;;;;;;2.00;2.00;;;;;18.77;50.75;101090.63;5082690;28;45448;-58
2021/08/09 01:36:20;;;;;;;;;1.50;0.25;;;;;18.66;50.71;101075.09;5082785;28;45316;-58
2021/08/09 01:38:47;;;;;;;;;2.75;2.00;;;;;18.71;50.83;101095.34;5081411;28;45984;-58
2021/08/09 01:41:13;;;;;;;;;1.00;1.00;;;;;18.67;51.24;101092.81;5082473;28;46379;-58
2021/08/09 01:43:38;;;;;;;;;0.00;0.00;;;;;18.68;50.69;101085.72;5082356;28;45246;-58
2021/08/09 01:46:04;;;;;;;;;1.75;1.75;;;;;18.64;50.75;101084.97;5082762;28;45239;-58
2021/08/09 01:48:30;;;;;;;;;1.00;1.00;;;;;18.60;50.93;101069.19;5082451;28;45189;-58
2021/08/09 01:50:56;;;;;;;;;1.25;1.25;;;;;18.61;51.18;101085.09;5082573;27;46117;-58
2021/08/09 01:53:23;;;;;;;;;3.75;2.00;;;;;18.58;51.13;101089.66;5082481;28;45429;-58
2021/08/09 01:55:49;;;;;;;;;0.50;0.50;;;;;18.56;51.07;101088.88;5081309;28;45333;-58
2021/08/09 01:58:14;;;;;;;;;2.25;1.00;;;;;18.58;50.82;101102.97;5082028;28;45330;-59
2021/08/09 02:00:40;;;;;;;;;2.25;2.25;;;;;18.57;50.97;101103.94;5082248;28;46305;-58
2021/08/09 02:03:06;;;;;;;;;1.50;1.50;;;;;18.55;51.15;101093.31;5082299;28;45708;-58
2021/08/09 02:05:31;;;;;;;;;1.00;1.00;;;;;18.52;51.36;101088.16;5082677;28;45316;-58
2021/08/09 02:07:57;;;;;;;;;1.50;0.75;;;;;18.52;51.07;101088.16;5082287;28;45431;-58
2021/08/09 02:10:25;;;;;;;;;1.00;1.00;;;;;18.50;51.31;101092.66;5082159;27;45434;-58
2021/08/09 02:12:51;;;;;;;;;2.00;1.00;;;;;18.47;51.01;101085.66;5081974;28;45458;-58
2021/08/09 02:15:26;;;;;;;;;2.00;2.00;;;;;18.46;51.11;101088.41;5080632;28;45239;-59
2021/08/09 02:18:03;;;;;;;;;1.00;1.00;;;;;18.46;51.06;101089.25;5082097;28;45277;-58
2021/08/09 02:20:33;;;;;;;;;2.75;1.50;;;;;18.45;51.52;101097.31;5081749;27;46256;-58
2021/08/09 02:23:03;;;;;;;;;0.50;0.50;;;;;18.42;51.12;101103.63;5081671;28;45417;-58
2021/08/09 02:25:32;;;;;;;;;1.25;1.25;;;;;18.42;51.39;101098.31;5080814;28;45311;-59
2021/08/09 02:28:11;;;;;;;;;1.50;0.50;;;;;18.39;51.26;101097.56;5081621;28;45189;-58
2021/08/09 02:30:40;;;;;;;;;1.00;1.00;;;;;18.37;51.27;101100.28;5081501;28;45541;-58
2021/08/09 02:33:06;;;;;;;;;1.25;1.00;;;;;18.36;51.27;101101.22;5080438;28;45351;-58
2021/08/09 02:35:33;;;;;;;;;3.75;2.00;;;;;18.33;51.64;101099.53;5081754;27;45335;-58
2021/08/09 02:37:59;;;;;;;;;0.50;0.50;;;;;18.31;51.50;101100.53;5081644;28;45218;-60
2021/08/09 02:40:25;;;;;;;;;1.00;1.00;;;;;18.25;51.55;101096.34;5081673;27;47065;-58
2021/08/09 02:42:51;;;;;;;;;2.75;1.00;;;;;18.24;51.54;101091.94;5080276;28;45254;-58
2021/08/09 02:45:16;;;;;;;;;1.00;1.00;;;;;18.22;51.70;101096.47;5081394;28;45230;-58
2021/08/09 02:47:42;;;;;;;;;3.75;2.25;;;;;18.17;51.54;101093.97;5080375;28;45827;-58
2021/08/09 02:50:10;;;;;;;;;2.75;1.00;;;;;18.17;51.70;101093.13;5081169;27;46317;-58
2021/08/09 02:52:39;;;;;;;;;2.00;2.00;;;;;18.12;51.55;101090.63;5081511;28;45374;-58
2021/08/09 02:55:06;;;;;;;;;1.25;1.00;;;;;18.10;51.88;101095.19;5080091;28;45198;-58
2021/08/09 02:57:32;;;;;;;;;0.50;0.50;;;;;18.07;51.77;101103.25;5081554;28;45394;-58
2021/08/09 02:59:58;;;;;;;;;0.75;0.75;;;;;18.05;51.80;101098.94;5081087;27;45541;-58
2021/08/09 03:02:24;;;;;;;;;3.50;1.50;;;;;18.03;51.73;101096.34;5081345;28;45300;-58
2021/08/09 03:04:51;;;;;;;;;1.00;1.00;;;;;17.95;51.78;101095.75;5081302;28;45314;-58
2021/08/09 03:07:17;;;;;;;;;3.00;1.50;;;;;17.95;51.71;101098.41;5081511;28;45398;-58
2021/08/09 03:09:43;;;;;;;;;1.00;1.00;;;;;17.96;52.08;101100.16;5081082;28;46116;-59
2021/08/09 03:12:13;;;;;;;;;1.75;1.00;;;;;17.96;52.18;101110.78;5081238;28;45338;-58
2021/08/09 03:14:39;;;;;;;;;1.50;1.25;;;;;17.94;51.94;101108.19;5081112;28;45318;-58
2021/08/09 03:17:05;;;;;;;;;1.00;1.00;;;;;17.90;52.02;101097.72;5081026;27;45298;-58
2021/08/09 03:19:31;;;;;;;;;1.50;1.50;;;;;17.91;52.00;101104.75;5080964;28;46084;-58
2021/08/09 03:21:59;;;;;;;;;2.00;2.00;;;;;17.89;52.03;101103.97;5080776;27;45402;-58
2021/08/09 03:24:27;;;;;;;;;2.00;1.50;;;;;17.87;51.96;101102.25;5081292;28;45387;-58
2021/08/09 03:26:53;;;;;;;;;3.00;1.75;;;;;17.85;52.14;101104.06;5081056;28;45417;-58
2021/08/09 03:29:18;;;;;;;;;2.00;2.00;;;;;17.84;52.22;101105.00;5080742;28;45953;-58
2021/08/09 03:31:44;;;;;;;;;1.50;1.50;;;;;17.82;52.13;101109.53;5080370;27;45319;-58
2021/08/09 03:34:09;;;;;;;;;3.00;2.00;;;;;17.80;52.11;101108.72;5080691;28;45479;-58
2021/08/09 03:36:35;;;;;;;;;2.25;1.00;;;;;17.79;52.32;101112.28;5113799;27;45506;-58
2021/08/09 03:39:00;;;;;;;;;2.00;2.00;;;;;17.76;52.13;101109.75;5080640;27;46061;-58
2021/08/09 03:41:26;;;;;;;;;3.50;3.00;;;;;17.75;52.29;101116.00;5080927;27;45321;-58
2021/08/09 03:43:51;;;;;;;;;3.00;1.00;;;;;17.71;52.42;101117.91;5096569;27;45259;-58
2021/08/09 03:46:17;;;;;;;;;2.00;1.50;;;;;17.68;52.30;101115.38;5080621;28;45564;-58
2021/08/09 03:48:42;;;;;;;;;2.00;2.00;;;;;17.65;52.56;101115.47;5080541;28;46012;-58
2021/08/09 03:51:07;;;;;;;;;3.00;2.50;;;;;17.65;52.30;101119.94;5079515;28;46006;-58
2021/08/09 03:53:33;;;;;;;;;3.00;3.00;;;;;17.64;52.44;101115.53;5079365;28;45284;-58
2021/08/09 03:55:58;;;;;;;;;3.75;3.00;;;;;17.59;52.53;101112.19;5080910;28;45247;-58
2021/08/09 03:58:24;;;;;;;;;5.00;3.50;;;;;17.60;52.33;101116.59;5080220;28;46835;-58
2021/08/09 04:00:49;;;;;;;;;1.50;1.00;;;;;17.59;52.56;101113.03;5080547;28;45786;-59
2021/08/09 04:03:14;;;;;;;;;4.50;1.75;;;;;17.58;52.56;101115.75;5080549;28;45327;-58
2021/08/09 04:05:40;;;;;;;;;1.00;1.00;;;;;17.55;52.57;101114.94;5080546;28;45600;-58
2021/08/09 04:08:05;;;;;;;;;3.50;1.50;;;;;17.53;52.57;101111.50;5080358;28;45345;-58
2021/08/09 04:10:30;;;;;;;;;4.75;2.00;;;;;17.50;52.43;101111.59;5080484;27;45267;-59
2021/08/09 04:12:56;;;;;;;;;3.00;1.25;;;;;17.48;52.54;101104.63;5080418;28;45350;-58
2021/08/09 04:15:21;;;;;;;;;3.00;1.00;;;;;17.49;52.61;101114.31;5078991;28;45370;-58
2021/08/09 04:17:47;;;;;;;;;1.00;1.00;;;;;17.46;52.59;101115.31;5078913;28;47066;-58
2021/08/09 04:20:12;;;;;;;;;3.00;2.25;;;;;17.43;52.60;101120.72;5080404;28;45238;-58
2021/08/09 04:22:37;;;;;;;;;2.00;1.75;;;;;17.40;52.88;101125.31;5080165;28;45480;-58
2021/08/09 04:25:03;;;;;;;;;1.00;1.00;;;;;17.34;52.88;101118.41;5080362;28;45562;-58
2021/08/09 04:27:29;;;;;;;;;2.75;2.00;;;;;17.31;53.06;101123.84;5080034;28;45508;-58
2021/08/09 04:29:54;;;;;;;;;3.50;3.00;;;;;17.30;53.00;101132.72;5080150;28;45432;-58
2021/08/09 04:32:20;;;;;;;;;2.50;2.50;;;;;17.24;52.73;101125.84;5080034;28;45249;-58
2021/08/09 04:34:46;;;;;;;;;5.25;1.00;;;;;17.24;53.09;101133.81;5078719;28;45422;-58
2021/08/09 04:37:11;;;;;;;;;3.50;2.75;;;;;17.24;53.08;101138.25;5079964;28;45392;-58
2021/08/09 04:39:37;;;;;;;;;2.25;1.25;;;;;17.22;52.98;101143.63;5080087;28;45216;-58
2021/08/09 04:42:02;;;;;;;;;2.50;2.50;;;;;17.21;53.22;101142.75;5079833;28;45215;-58
2021/08/09 04:44:28;;;;;;;;;1.75;1.00;;;;;17.20;53.09;101146.31;5080893;28;45382;-58
2021/08/09 04:46:55;;;;;;;;;3.00;3.00;;;;;17.17;53.22;101148.25;5083221;28;45536;-58
2021/08/09 04:49:20;;;;;;;;;5.00;3.00;;;;;17.16;52.78;101147.34;5083712;28;45157;-58
2021/08/09 04:51:46;;;;;;;;;1.00;1.00;;;;;17.15;53.22;101147.41;5082166;27;45234;-58
2021/08/09 04:54:11;;;;;;;;;2.00;1.00;;;;;17.15;53.21;101145.63;5083601;28;45267;-58
2021/08/09 04:56:36;;;;;;;;;4.75;3.00;;;;;17.13;53.18;101155.44;5083509;28;45481;-58
2021/08/09 04:59:01;;;;;;;;;5.00;4.50;;;;;17.10;53.19;101155.53;5083329;28;45398;-58
2021/08/09 05:01:27;;;;;;;;;2.00;2.00;;;;;17.09;53.18;101160.91;5083369;27;45286;-58
2021/08/09 05:03:52;;;;;;;;;3.00;3.00;;;;;17.06;53.43;101161.88;5083450;28;45571;-58
2021/08/09 05:06:18;;;;;;;;;4.75;2.00;;;;;17.05;53.41;101166.31;5083338;28;45255;-58
2021/08/09 05:08:44;;;;;;;;;3.00;3.00;;;;;17.04;53.26;101158.41;5083357;28;45345;-58
2021/08/09 05:11:11;;;;;;;;;1.75;1.50;;;;;17.01;53.39;101159.38;5083304;27;45332;-58
2021/08/09 05:13:36;;;;;;;;;2.75;2.25;;;;;17.00;53.18;101162.09;5083157;28;45335;-58
2021/08/09 05:16:02;;;;;;;;;2.50;2.25;;;;;16.96;53.65;101158.66;5082702;28;45970;-58
2021/08/09 05:18:27;;;;;;;;;3.50;2.25;;;;;16.97;53.42;101159.56;5081944;28;45255;-58
2021/08/09 05:20:52;;;;;;;;;5.00;4.00;;;;;16.94;53.86;101157.84;5082912;27;45258;-58
2021/08/09 05:23:18;;;;;;;;;3.50;2.00;;;;;16.93;53.77;101163.22;5081722;28;45312;-58
2021/08/09 05:25:43;;;;;;;;;3.00;3.00;;;;;16.92;53.38;101166.78;5082916;28;45967;-58
2021/08/09 05:28:08;;;;;;;;;2.00;2.00;;;;;16.90;53.88;101174.78;5082722;28;45215;-58
2021/08/09 05:30:34;;;;;;;;;5.25;2.50;;;;;16.88;53.91;101168.66;5082924;28;45284;-58
2021/08/09 05:33:01;;;;;;;;;3.75;2.75;;;;;16.88;53.59;101173.97;5082853;28;45235;-58
2021/08/09 05:35:27;;;;;;;;;2.00;2.00;;;;;16.87;53.68;101167.78;5081483;28;46135;-58
2021/08/09 05:37:52;;;;;;;;;3.25;3.25;;;;;16.85;54.07;101168.75;5082800;28;45260;-58
2021/08/09 05:40:18;;;;;;;;;2.50;2.00;;;;;16.84;53.60;101167.91;5082885;27;45395;-58
2021/08/09 05:42:48;;;;;;;;;4.25;2.00;;;;;16.82;54.03;101164.41;5082596;28;45493;-58
2021/08/09 05:45:13;;;;;;;;;2.00;2.00;;;;;16.82;54.06;101164.41;5082340;28;45296;-58
2021/08/09 05:47:39;;;;;;;;;2.50;2.50;;;;;16.83;53.93;101171.47;5081282;28;45295;-58
2021/08/09 05:50:04;;;;;;;;;4.00;4.00;;;;;16.84;54.22;101174.97;5082435;27;45515;-58
2021/08/09 05:52:30;;;;;;;;;3.25;2.25;;;;;16.85;53.79;101176.72;5082750;28;45160;-58
2021/08/09 05:55:00;;;;;;;;;3.25;2.00;;;;;16.79;54.29;101167.19;5081630;28;45295;-58
2021/08/09 05:57:26;;;;;;;;;3.75;2.00;;;;;16.83;54.14;101176.78;5082526;28;45369;-58
2021/08/09 05:59:51;;;;;;;;;3.00;1.00;;;;;16.81;54.28;101178.59;5082246;28;45315;-57
2021/08/09 06:02:17;;;;;;;;;3.00;3.00;;;;;16.84;54.19;101178.50;5082287;28;45297;-58
2021/08/09 06:04:42;;;;;;;;;4.00;3.00;;;;;16.86;54.45;101175.81;5082062;28;46330;-57
2021/08/09 06:07:15;;;;;;;;;3.00;2.25;;;;;16.87;54.05;101175.75;5082425;28;45384;-58
2021/08/09 06:09:43;;;;;;;;;3.50;2.50;;;;;16.86;54.49;101171.34;5082284;27;45331;-58
2021/08/09 06:12:10;;;;;;;;;2.25;1.25;;;;;16.87;54.33;101178.41;5082183;28;45256;-58
2021/08/09 06:14:36;;;;;;;;;4.25;3.50;;;;;16.93;54.39;101181.78;5081802;28;45241;-58
2021/08/09 06:17:02;;;;;;;;;2.00;1.75;;;;;16.93;54.39;101182.69;5081995;28;45250;-58
2021/08/09 06:19:27;;;;;;;;;4.25;4.00;;;;;16.95;54.54;101178.16;5082122;28;45378;-59
2021/08/09 06:21:53;;;;;;;;;3.25;3.25;;;;;16.97;54.59;101189.63;5081828;27;46397;-59
2021/08/09 06:24:18;;;;;;;;;4.75;3.25;;;;;16.99;54.50;101195.75;5081880;28;45368;-58
2021/08/09 06:26:43;;;;;;;;;2.50;2.50;;;;;17.03;54.60;101194.72;5080805;28;45268;-58
2021/08/09 06:29:09;;;;;;;;;2.50;2.50;;;;;17.06;54.74;101188.44;5082016;28;45311;-58
2021/08/09 06:31:35;;;;;;;;;4.50;2.50;;;;;17.09;54.87;101196.28;5081759;27;45407;-58
2021/08/09 06:34:00;;;;;;;;;2.75;2.75;;;;;17.11;54.63;101196.25;5081527;28;46388;-58
2021/08/09 06:36:26;;;;;;;;;14.25;12.00;;;;;17.13;54.75;101192.63;5081713;28;45462;-58
2021/08/09 06:38:51;;;;;;;;;7.50;5.75;;;;;17.17;54.58;101202.22;5081847;28;45316;-58
2021/08/09 06:41:20;;;;;;;;;7.25;3.00;;;;;17.22;54.71;101207.38;5081798;28;45301;-58
2021/08/09 06:43:46;;;;;;;;;6.75;3.25;;;;;17.17;54.86;101201.34;5081467;28;46394;-58
2021/08/09 06:46:14;;;;;;;;;3.75;3.50;;;;;17.19;55.01;101200.38;5081658;28;45154;-59
2021/08/09 06:48:40;;;;;;;;;4.25;3.00;;;;;17.26;54.84;101210.75;5081596;28;45260;-58
2021/08/09 06:51:06;;;;;;;;;3.25;2.00;;;;;17.26;55.22;101209.00;5081489;27;45423;-58
2021/08/09 06:53:31;;;;;;;;;2.25;2.25;;;;;17.28;55.17;101217.78;5081391;28;45308;-59
2021/08/09 06:55:56;;;;;;;;;6.00;3.75;;;;;17.32;55.18;101221.16;5081649;28;45433;-58
2021/08/09 06:58:22;;;;;;;;;1.75;1.75;;;;;17.32;55.01;101215.84;5081414;28;45227;-58
2021/08/09 07:00:47;;;;;;;;;3.00;3.00;;;;;17.26;55.20;101202.78;5081197;27;45523;-58
2021/08/09 07:03:14;;;;;;;;;7.25;3.00;;;;;17.36;55.14;101220.16;5081155;28;46206;-59
2021/08/09 07:05:44;;;;;;;;;4.75;2.50;;;;;17.39;55.28;101220.03;5081645;28;45349;-58
2021/08/09 07:08:10;;;;;;;;;4.75;3.25;;;;;17.41;54.90;101217.31;5080393;28;45386;-58
2021/08/09 07:10:36;;;;;;;;;5.25;2.75;;;;;17.40;55.26;101220.94;5081253;28;45300;-58
2021/08/09 07:13:02;;;;;;;;;4.25;3.50;;;;;17.36;55.72;101213.06;5079353;28;46887;-58
2021/08/09 07:15:27;;;;;;;;;4.50;3.25;;;;;17.37;55.52;101221.88;5081117;28;45304;-58
2021/08/09 07:17:53;;;;;;;;;5.00;3.00;;;;;17.35;55.53;101221.94;5079859;28;45248;-59
2021/08/09 07:20:18;;;;;;;;;3.75;2.75;;;;;17.37;55.77;101213.91;5081162;27;45205;-58
2021/08/09 07:22:45;;;;;;;;;2.50;2.50;;;;;17.42;55.74;101209.31;5079385;28;47165;-58
2021/08/09 07:25:11;;;;;;;;;6.25;2.00;;;;;17.43;55.80;101213.69;5081218;28;45232;-58
2021/08/09 07:27:38;;;;;;;;;2.50;2.50;;;;;17.47;55.86;101219.78;5080824;28;45492;-59
2021/08/09 07:30:04;;;;;;;;;3.50;2.25;;;;;17.45;55.90;101211.84;5080619;27;45385;-58
2021/08/09 07:32:29;;;;;;;;;5.00;4.00;;;;;17.49;55.63;101218.78;5080589;28;46315;-59
2021/08/09 07:34:55;;;;;;;;;6.75;5.00;;;;;17.49;55.67;101218.78;5080875;27;45332;-58
2021/08/09 07:37:20;;;;;;;;;6.25;5.00;;;;;17.52;55.99;101212.50;5080848;28;45256;-58
2021/08/09 07:39:46;;;;;;;;;8.00;5.00;;;;;17.54;55.77;101219.50;5080970;27;45329;-58
2021/08/09 07:42:11;;;;;;;;;4.25;4.00;;;;;17.58;55.89;101222.91;5080374;28;46208;-59
2021/08/09 07:44:36;;;;;;;;;5.50;4.00;;;;;17.58;55.96;101214.09;5081059;28;45314;-58
2021/08/09 07:47:02;;;;;;;;;5.25;4.00;;;;;17.62;55.86;101216.59;5080531;28;46625;-58
2021/08/09 07:49:27;;;;;;;;;6.00;3.00;;;;;17.64;55.97;101212.06;5079420;28;46032;-59
2021/08/09 07:51:52;;;;;;;;;5.00;4.75;;;;;17.64;55.89;101216.53;5080276;27;45310;-59
2021/08/09 07:54:20;;;;;;;;;3.75;3.75;;;;;17.70;56.11;101218.97;5080610;28;45187;-58
2021/08/09 07:56:45;;;;;;;;;9.00;4.25;;;;;17.71;56.07;101224.22;5080658;28;45417;-58
2021/08/09 07:59:11;;;;;;;;;3.00;3.00;;;;;17.73;56.33;101212.66;5080424;28;45185;-58
2021/08/09 08:01:36;;;;;;;;;3.50;2.25;;;;;17.75;56.18;101208.13;5080089;28;45301;-58
2021/08/09 08:04:01;;;;;;;;;4.50;3.00;;;;;17.83;56.37;101233.50;5079422;28;45271;-59
2021/08/09 08:06:27;;;;;;;;;4.00;2.50;;;;;17.83;56.16;101232.66;5080495;28;45344;-58
2021/08/09 08:08:52;;;;;;;;;4.50;2.75;;;;;17.84;56.50;101237.06;5080400;28;45638;-58
2021/08/09 08:11:17;;;;;;;;;3.50;3.50;;;;;17.89;56.34;101237.75;5080312;27;45477;-58
2021/08/09 08:13:42;;;;;;;;;6.00;5.00;;;;;17.91;56.41;101241.22;5080217;28;45297;-57
2021/08/09 08:16:08;;;;;;;;;4.00;3.25;;;;;17.95;56.54;101236.66;5080111;28;45401;-58
2021/08/09 08:18:33;;;;;;;;;5.00;4.00;;;;;17.96;56.58;101241.97;5079970;28;45370;-58
2021/08/09 08:20:58;;;;;;;;;6.00;4.00;;;;;18.03;56.46;101234.59;5079988;27;45579;-58
2021/08/09 08:23:24;;;;;;;;;6.25;4.25;;;;;18.01;56.35;101241.75;5080342;28;45369;-58
2021/08/09 08:25:49;;;;;;;;;3.25;3.25;;;;;18.02;56.56;101239.06;5080199;28;45245;-58
2021/08/09 08:28:15;;;;;;;;;6.75;3.25;;;;;18.07;56.47;101243.34;5079963;28;45472;-58
2021/08/09 08:30:40;;;;;;;;;5.50;4.50;;;;;18.05;56.43;101226.56;5079632;28;45497;-58
2021/08/09 08:33:05;;;;;;;;;5.00;3.50;;;;;18.10;56.67;101230.81;5079967;28;45377;-58
2021/08/09 08:35:31;;;;;;;;;8.25;4.25;;;;;18.15;56.27;101234.16;5080055;27;45298;-58
2021/08/09 08:37:56;;;;;;;;;7.00;5.25;;;;;18.18;56.63;101233.16;5078705;28;45457;-58
2021/08/09 08:40:22;;;;;;;;;2.00;2.00;;;;;18.14;56.94;101240.38;5079642;28;45973;-58
2021/08/09 08:42:48;;;;;;;;;4.00;3.50;;;;;18.12;56.77;101236.91;5079890;28;45221;-59
2021/08/09 08:45:21;;;;;;;;;6.50;4.25;;;;;18.17;56.67;101231.41;5079902;28;45321;-59
2021/08/09 08:47:48;;;;;;;;;4.25;3.50;;;;;18.23;56.57;101243.63;5079990;28;45424;-59
2021/08/09 08:50:17;;;;;;;;;5.25;4.00;;;;;18.26;56.67;101244.34;5078079;27;46953;-59
2021/08/09 08:52:47;;;;;;;;;3.00;3.00;;;;;18.24;56.44;101242.69;5079639;28;45313;-58
2021/08/09 08:55:13;;;;;;;;;5.00;4.00;;;;;18.23;57.09;101251.63;5079485;28;45420;-58
2021/08/09 08:57:38;;;;;;;;;2.50;2.50;;;;;18.24;56.75;101243.56;5079621;28;45466;-58
2021/08/09 09:00:05;;;;;;;;;5.75;3.75;;;;;18.27;56.97;101242.59;5079239;28;45224;-58
2021/08/09 09:02:34;;;;;;;;;4.25;3.50;;;;;18.28;57.27;101252.31;5079582;28;45279;-58
2021/08/09 09:05:19;;;;;;;;;5.75;5.75;;;;;18.32;56.81;101253.91;5079594;28;45440;-59
2021/08/09 09:07:47;;;;;;;;;4.75;4.00;;;;;18.34;56.67;101255.59;5079563;28;45389;-58
2021/08/09 09:10:22;;;;;;;;;5.50;5.25;;;;;18.43;56.76;101266.81;5079304;27;45176;-58
2021/08/09 09:13:14;;;;;;;;;4.00;3.75;;;;;18.47;56.63;101276.41;5079159;28;45207;-59
2021/08/09 09:15:59;;;;;;;;;6.00;4.00;;;;;18.46;56.90;101272.84;5079371;27;45405;-58
2021/08/09 09:18:27;;;;;;;;;3.50;3.50;;;;;18.51;56.90;101262.03;5079484;28;45386;-58
2021/08/09 09:20:54;;;;;;;;;4.75;4.25;;;;;18.55;56.95;101273.44;5079141;27;46208;-59
2021/08/09 09:23:22;;;;;;;;;3.00;2.00;;;;;18.60;56.89;101287.44;5079467;28;45227;-58
2021/08/09 09:25:49;;;;;;;;;4.75;4.00;;;;;18.63;56.88;101287.31;5079278;28;45318;-58
2021/08/09 09:28:29;;;;;;;;;4.50;3.25;;;;;18.73;56.84;101290.47;5079198;28;45349;-58
2021/08/09 09:31:01;;;;;;;;;5.75;5.00;;;;;18.74;57.20;101285.09;5080179;28;46300;-58
2021/08/09 09:33:28;;;;;;;;;6.50;4.00;;;;;18.81;56.86;101291.88;5082566;28;45393;-58
2021/08/09 09:35:54;;;;;;;;;3.25;3.00;;;;;18.87;57.05;101284.59;5082617;27;45320;-58
2021/08/09 09:38:19;;;;;;;;;3.00;3.00;;;;;18.94;56.63;101280.78;5082794;28;45185;-58
2021/08/09 09:40:45;;;;;;;;;3.75;3.75;;;;;19.01;56.41;101282.28;5082395;28;46416;-58
2021/08/09 09:43:40;;;;;;;;;4.00;3.50;;;;;19.08;56.45;101285.53;5081272;28;45446;-59
2021/08/09 09:46:07;;;;;;;;;2.00;2.00;;;;;19.10;56.21;101278.38;5082900;28;45155;-59
2021/08/09 09:48:37;;;;;;;;;3.75;3.75;;;;;19.17;56.53;101288.69;5082463;28;45402;-60
2021/08/09 09:51:13;;;;;;;;;4.25;3.00;;;;;19.23;56.60;101286.69;5082326;27;46181;-58
2021/08/09 09:53:40;;;;;;;;;3.00;3.00;;;;;19.26;56.46;101283.94;5082339;28;45269;-58
2021/08/09 09:56:06;;;;;;;;;5.00;3.75;;;;;19.32;56.49;101302.31;5082580;28;45129;-58
2021/08/09 09:58:33;;;;;;;;;6.25;5.00;;;;;19.37;56.28;101291.44;5082207;28;45362;-58
2021/08/09 10:01:00;;;;;;;;;3.75;3.25;;;;;19.37;56.52;101289.66;5082067;27;46230;-58
2021/08/09 10:03:25;;;;;;;;;2.50;2.25;;;;;19.47;56.01;101285.69;5082049;28;45274;-58
2021/08/09 10:05:52;;;;;;;;;5.00;3.00;;;;;19.49;55.84;101281.13;5081156;28;45275;-58
2021/08/09 10:08:19;;;;;;;;;3.75;3.75;;;;;19.57;55.74;101291.47;5080727;28;45483;-58
2021/08/09 10:10:53;;;;;;;;;3.25;3.25;;;;;19.65;55.54;101294.66;5082131;27;46142;-58
2021/08/09 10:13:21;;;;;;;;;3.00;3.00;;;;;19.68;56.14;101296.31;5081946;28;45169;-58
2021/08/09 10:15:55;;;;;;;;;4.50;3.25;;;;;19.70;56.15;101288.25;5081908;28;45236;-58
2021/08/09 10:18:24;;;;;;;;;5.25;3.00;;;;;19.78;56.05;101291.47;5081976;28;45469;-58
2021/08/09 10:20:51;;;;;;;;;4.50;4.50;;;;;19.86;55.60;101281.38;5081644;27;46371;-59
2021/08/09 10:23:33;;;;;;;;;2.75;2.75;;;;;19.91;55.50;101300.69;5082008;28;46487;-58
2021/08/09 10:25:59;;;;;;;;;4.25;4.00;;;;;20.03;55.39;101283.25;5081969;28;45551;-58
2021/08/09 10:28:56;;;;;;;;;4.50;3.50;;;;;20.12;55.32;101297.97;5080946;28;45347;-58
2021/08/09 10:31:26;;;;;;;;;6.50;5.00;;;;;20.15;55.69;101281.84;5081452;28;46292;-58
2021/08/09 10:33:53;;;;;;;;;6.00;5.00;;;;;20.23;55.75;101286.81;5081577;28;45236;-58
2021/08/09 10:36:22;;;;;;;;;6.00;6.00;;;;;20.33;55.05;101280.13;5082055;28;45326;-58
2021/08/09 10:38:49;;;;;;;;;2.50;2.50;;;;;20.43;55.35;101280.56;5081573;28;45361;-58
2021/08/09 10:41:15;;;;;;;;;3.00;3.00;;;;;20.53;55.24;101278.31;5081457;28;45161;-58
2021/08/09 10:44:05;;;;;;;;;6.75;4.50;;;;;20.67;55.51;101277.66;5081435;28;45279;-59
2021/08/09 10:46:33;;;;;;;;;6.00;4.50;;;;;20.75;55.32;101283.53;5081793;27;45398;-58
2021/08/09 10:48:59;;;;;;;;;4.50;4.00;;;;;20.84;55.20;101283.09;5081213;28;45468;-59
2021/08/09 10:51:52;;;;;;;;;4.25;3.00;;;;;21.03;54.95;101290.19;5079862;28;47869;-59
2021/08/09 10:54:37;;;;;;;;;3.00;2.50;;;;;21.10;55.10;101281.78;5081517;27;45283;-59
2021/08/09 10:57:05;;;;;;;;;3.00;3.00;;;;;21.20;54.75;101268.81;5080116;28;45278;-59
2021/08/09 10:59:43;;;;;;;;;1.25;1.00;;;;;21.36;54.94;101273.41;5081289;28;45282;-58
2021/08/09 11:02:15;;;;;;;;;2.00;2.00;;;;;21.49;55.00;101276.31;5081292;28;46170;-60
2021/08/09 11:04:41;;;;;;;;;4.75;3.00;;;;;21.65;54.31;101281.75;5081165;28;45236;-60
2021/08/09 11:07:17;;;;;;;;;3.50;2.50;;;;;21.89;54.29;101283.13;5063052;28;45338;-57
2021/08/09 11:09:44;;;;;;;;;4.00;3.00;;;;;22.03;54.56;101279.69;5081012;27;45356;-57
2021/08/09 11:12:28;;;;;;;;;3.00;2.00;;;;;22.26;54.04;101284.75;5080911;27;45898;-60
2021/08/09 11:15:20;;;;;;;;;3.25;2.00;;;;;22.40;54.14;101288.44;5079400;28;45497;-60
2021/08/09 11:17:50;;;;;;;;;3.00;2.00;;;;;22.59;54.11;101286.53;5080653;28;45245;-59
2021/08/09 11:20:24;;;;;;;;;3.75;2.75;;;;;22.82;53.79;101274.53;5079629;28;45844;-60
2021/08/09 11:23:00;;;;;;;;;4.25;2.00;;;;;23.06;53.71;101280.28;5080664;28;45310;-60
2021/08/09 11:25:38;;;;;;;;;3.00;2.00;;;;;23.31;53.33;101271.69;5080919;28;45350;-59
2021/08/09 11:28:09;;;;;;;;;2.75;2.00;;;;;23.56;53.48;101270.22;5080860;28;45323;-60